createdAt,value
2022-12-18T00:00:06.109Z,65.65
2022-12-18T00:03:01.986Z,66.15
2022-12-18T00:05:30.577Z,66.22
2022-12-18T00:07:58.510Z,66.11
2022-12-18T00:10:26.721Z,66.02
2022-12-18T00:12:54.718Z,66.12
2022-12-18T00:15:22.723Z,66.12
2022-12-18T00:17:51.255Z,66.14
2022-12-18T00:20:24.773Z,66.24
2022-12-18T00:22:54.084Z,66.26
2022-12-18T00:25:22.341Z,66.52
2022-12-18T00:27:50.287Z,66.65
2022-12-18T00:30:19.517Z,67.25
2022-12-18T00:32:47.429Z,67.39
2022-12-18T00:35:15.307Z,71.94
2022-12-18T00:37:43.766Z,71.26
2022-12-18T00:40:13.588Z,65.17
2022-12-18T00:42:56.676Z,56.17
2022-12-18T00:45:27.445Z,52.58
2022-12-18T00:47:56.736Z,54.26
2022-12-18T00:50:26.174Z,56.17
2022-12-18T00:52:54.115Z,58.06
2022-12-18T00:55:21.928Z,59.28
2022-12-18T00:57:52.957Z,60.48
2022-12-18T01:00:21.662Z,61.16
2022-12-18T01:02:49.697Z,65.82
2022-12-18T01:05:18.209Z,72.06
2022-12-18T01:07:46.272Z,67.04
2022-12-18T01:10:14.712Z,61.82
2022-12-18T01:12:42.723Z,55.28
2022-12-18T01:15:13.996Z,53.11
2022-12-18T01:17:42.560Z,54.88
2022-12-18T01:20:13.190Z,56.81
2022-12-18T01:22:41.436Z,58.26
2022-12-18T01:25:09.860Z,59.61
2022-12-18T01:27:38.037Z,60.85
2022-12-18T01:30:06.775Z,65.27
2022-12-18T01:32:34.687Z,70.08
2022-12-18T01:35:04.804Z,67.15
2022-12-18T01:37:32.950Z,62.62
2022-12-18T01:40:01.041Z,60.18
2022-12-18T01:42:29.472Z,55.84
2022-12-18T01:45:06.027Z,54.98
2022-12-18T01:47:50.872Z,57.02
2022-12-18T01:50:23.958Z,58.27
2022-12-18T01:52:59.445Z,59.66
2022-12-18T01:55:32.019Z,61.26
2022-12-18T01:58:01.701Z,65.39
2022-12-18T02:00:30.475Z,71.15
2022-12-18T02:02:58.636Z,67.98
2022-12-18T02:05:48.318Z,65.40
2022-12-18T02:08:25.896Z,58.45
2022-12-18T02:11:23.363Z,54.42
2022-12-18T02:14:21.740Z,55.42
2022-12-18T02:16:57.321Z,57.54
2022-12-18T02:19:45.734Z,59.90
2022-12-18T02:22:30.913Z,60.92
2022-12-18T02:25:17.471Z,65.68
2022-12-18T02:27:50.303Z,68.74
2022-12-18T02:30:20.215Z,67.42
2022-12-18T02:32:54.624Z,63.83
2022-12-18T02:35:30.519Z,60.42
2022-12-18T02:38:00.213Z,56.10
2022-12-18T02:40:31.504Z,55.06
2022-12-18T02:43:11.686Z,56.04
2022-12-18T02:45:55.916Z,57.83
2022-12-18T02:48:29.853Z,58.99
2022-12-18T02:51:24.700Z,61.31
2022-12-18T02:54:03.871Z,67.45
2022-12-18T02:56:40.040Z,68.57
2022-12-18T02:59:16.698Z,65.84
2022-12-18T03:02:03.082Z,64.43
2022-12-18T03:04:49.876Z,68.12
2022-12-18T03:07:39.115Z,61.19
2022-12-18T03:10:14.758Z,51.92
2022-12-18T03:12:51.411Z,52.07
2022-12-18T03:15:31.872Z,53.68
2022-12-18T03:18:24.400Z,56.46
2022-12-18T03:20:57.095Z,57.90
2022-12-18T03:23:29.360Z,59.07
2022-12-18T03:26:07.163Z,60.71
2022-12-18T03:28:43.219Z,66.88
2022-12-18T03:31:15.329Z,71.80
2022-12-18T03:33:55.471Z,64.51
2022-12-18T03:36:28.064Z,55.10
2022-12-18T03:38:56.153Z,53.47
2022-12-18T03:41:34.813Z,54.88
2022-12-18T03:44:51.132Z,56.68
2022-12-18T03:47:45.515Z,58.43
2022-12-18T03:50:20.991Z,60.85
2022-12-18T03:53:38.728Z,61.43
2022-12-18T03:56:09.724Z,71.06
2022-12-18T03:58:43.028Z,70.74
2022-12-18T04:01:32.305Z,63.79
2022-12-18T04:04:03.324Z,56.85
2022-12-18T04:06:37.026Z,53.24
2022-12-18T04:09:06.181Z,54.37
2022-12-18T04:11:37.286Z,55.47
2022-12-18T04:14:07.340Z,57.75
2022-12-18T04:16:35.745Z,58.87
2022-12-18T04:19:06.189Z,60.13
2022-12-18T04:21:39.534Z,61.39
2022-12-18T04:24:07.963Z,64.76
2022-12-18T04:26:36.586Z,69.72
2022-12-18T04:29:31.299Z,66.03
2022-12-18T04:31:59.344Z,63.35
2022-12-18T04:34:27.666Z,62.51
2022-12-18T04:36:56.182Z,62.21
2022-12-18T04:39:25.333Z,63.18
2022-12-18T04:41:55.484Z,63.14
2022-12-18T04:44:23.975Z,61.28
2022-12-18T04:46:51.914Z,59.85
2022-12-18T04:49:20.280Z,57.02
2022-12-18T04:51:48.580Z,55.94
2022-12-18T04:54:17.083Z,57.07
2022-12-18T04:56:44.944Z,58.66
2022-12-18T04:59:13.237Z,59.65
2022-12-18T05:01:41.420Z,60.79
2022-12-18T05:04:10.027Z,62.00
2022-12-18T05:06:38.464Z,65.09
2022-12-18T05:09:06.540Z,69.52
2022-12-18T05:11:34.701Z,68.21
2022-12-18T05:14:03.200Z,66.84
2022-12-18T05:16:31.248Z,66.59
2022-12-18T05:18:59.077Z,63.32
2022-12-18T05:21:27.641Z,58.34
2022-12-18T05:23:55.542Z,54.80
2022-12-18T05:26:24.252Z,55.39
2022-12-18T05:28:52.744Z,56.96
2022-12-18T05:31:20.764Z,58.35
2022-12-18T05:33:48.685Z,59.49
2022-12-18T05:36:17.448Z,60.58
2022-12-18T05:38:45.294Z,63.21
2022-12-18T05:41:13.173Z,69.45
2022-12-18T05:43:42.632Z,67.55
2022-12-18T05:46:16.254Z,65.42
2022-12-18T05:48:45.862Z,63.12
2022-12-18T05:51:19.251Z,61.18
2022-12-18T05:53:48.081Z,61.09
2022-12-18T05:56:20.275Z,60.92
2022-12-18T05:58:52.052Z,61.06
2022-12-18T06:01:23.116Z,60.25
2022-12-18T06:03:51.508Z,53.38
2022-12-18T06:06:23.863Z,52.90
2022-12-18T06:08:52.391Z,54.50
2022-12-18T06:11:23.829Z,56.40
2022-12-18T06:13:58.138Z,57.81
2022-12-18T06:16:28.342Z,58.91
2022-12-18T06:19:01.104Z,59.94
2022-12-18T06:21:30.846Z,61.25
2022-12-18T06:24:00.652Z,63.75
2022-12-18T06:26:28.877Z,69.83
2022-12-18T06:28:57.378Z,65.97
2022-12-18T06:31:26.734Z,64.38
2022-12-18T06:33:55.025Z,61.77
2022-12-18T06:36:23.362Z,61.42
2022-12-18T06:38:51.250Z,61.61
2022-12-18T06:41:21.408Z,61.99
2022-12-18T06:43:49.989Z,62.54
2022-12-18T06:46:17.899Z,62.98
2022-12-18T06:48:50.000Z,67.64
2022-12-18T06:51:19.919Z,68.45
2022-12-18T06:53:47.862Z,59.85
2022-12-18T06:56:15.781Z,53.07
2022-12-18T06:58:43.921Z,52.50
2022-12-18T07:01:13.060Z,54.30
2022-12-18T07:03:43.566Z,56.08
2022-12-18T07:06:17.541Z,57.63
2022-12-18T07:08:46.659Z,59.15
2022-12-18T07:11:15.804Z,60.37
2022-12-18T07:13:43.952Z,61.68
2022-12-18T07:16:20.804Z,63.67
2022-12-18T07:18:50.531Z,66.20
2022-12-18T07:21:20.772Z,66.48
2022-12-18T07:23:49.475Z,65.78
2022-12-18T07:26:21.407Z,65.82
2022-12-18T07:28:50.059Z,65.90
2022-12-18T07:31:22.102Z,66.28
2022-12-18T07:33:51.608Z,66.42
2022-12-18T07:36:20.820Z,66.57
2022-12-18T07:38:50.322Z,67.52
2022-12-18T07:41:19.767Z,67.41
2022-12-18T07:43:48.346Z,67.55
2022-12-18T07:46:17.846Z,67.74
2022-12-18T07:48:49.340Z,68.94
2022-12-18T07:51:19.765Z,70.19
2022-12-18T07:53:51.304Z,68.87
2022-12-18T07:56:30.099Z,68.30
2022-12-18T07:59:00.287Z,70.41
2022-12-18T08:01:28.711Z,68.49
2022-12-18T08:03:58.396Z,66.12
2022-12-18T08:06:27.184Z,64.46
2022-12-18T08:08:56.786Z,63.09
2022-12-18T08:11:26.888Z,63.33
2022-12-18T08:13:55.056Z,62.26
2022-12-18T08:16:24.911Z,62.27
2022-12-18T08:18:54.243Z,62.45
2022-12-18T08:21:25.267Z,66.93
2022-12-18T08:23:55.559Z,65.78
2022-12-18T08:26:24.379Z,55.92
2022-12-18T08:28:54.766Z,53.00
2022-12-18T08:31:23.649Z,54.46
2022-12-18T08:33:54.473Z,56.92
2022-12-18T08:36:24.921Z,58.34
2022-12-18T08:38:53.919Z,61.05
2022-12-18T08:41:22.644Z,63.79
2022-12-18T08:44:09.976Z,69.14
2022-12-18T08:46:43.385Z,67.25
2022-12-18T08:49:13.048Z,64.79
2022-12-18T08:51:41.460Z,62.02
2022-12-18T08:54:13.894Z,65.32
2022-12-18T08:56:42.268Z,60.57
2022-12-18T08:59:15.813Z,56.56
2022-12-18T09:01:48.532Z,54.48
2022-12-18T09:04:16.667Z,56.04
2022-12-18T09:06:44.647Z,57.94
2022-12-18T09:09:13.073Z,59.66
2022-12-18T09:11:41.016Z,60.61
2022-12-18T09:14:10.982Z,63.51
2022-12-18T09:16:39.382Z,68.76
2022-12-18T09:19:07.430Z,66.16
2022-12-18T09:21:37.211Z,66.10
2022-12-18T09:24:09.101Z,64.58
2022-12-18T09:26:37.991Z,62.14
2022-12-18T09:29:08.586Z,61.04
2022-12-18T09:31:38.017Z,60.46
2022-12-18T09:34:07.110Z,57.42
2022-12-18T09:36:35.375Z,56.41
2022-12-18T09:39:08.085Z,57.32
2022-12-18T09:41:48.627Z,58.98
2022-12-18T09:44:30.962Z,60.34
2022-12-18T09:47:10.669Z,64.11
2022-12-18T09:49:44.042Z,67.99
2022-12-18T09:52:41.089Z,66.26
2022-12-18T09:55:42.122Z,64.33
2022-12-18T09:58:30.243Z,62.77
2022-12-18T10:00:58.319Z,61.53
2022-12-18T10:03:27.765Z,60.84
2022-12-18T10:06:14.888Z,60.25
2022-12-18T10:09:01.793Z,59.52
2022-12-18T10:11:35.868Z,59.09
2022-12-18T10:14:31.793Z,58.90
2022-12-18T10:17:26.253Z,59.67
2022-12-18T10:20:00.707Z,61.12
2022-12-18T10:22:43.238Z,62.63
2022-12-18T10:25:36.319Z,66.25
2022-12-18T10:28:19.051Z,65.69
2022-12-18T10:30:47.766Z,70.25
2022-12-18T10:33:22.296Z,68.36
2022-12-18T10:35:52.116Z,59.78
2022-12-18T10:38:20.376Z,51.51
2022-12-18T10:40:55.538Z,51.55
2022-12-18T10:43:35.002Z,53.61
2022-12-18T10:46:06.794Z,56.18
2022-12-18T10:48:43.382Z,58.65
2022-12-18T10:51:22.200Z,59.57
2022-12-18T10:54:30.542Z,60.62
2022-12-18T10:57:29.591Z,61.23
2022-12-18T11:00:02.051Z,66.98
2022-12-18T11:02:38.980Z,69.85
2022-12-18T11:05:38.145Z,69.14
2022-12-18T11:08:07.217Z,61.87
2022-12-18T11:10:39.032Z,54.36
2022-12-18T11:13:26.145Z,52.86
2022-12-18T11:15:54.424Z,54.54
2022-12-18T11:18:33.784Z,56.43
2022-12-18T11:21:10.991Z,57.66
2022-12-18T11:23:55.034Z,58.81
2022-12-18T11:26:36.964Z,59.86
2022-12-18T11:29:24.893Z,61.53
2022-12-18T11:31:57.076Z,64.73
2022-12-18T11:34:33.093Z,69.44
2022-12-18T11:37:04.104Z,68.48
2022-12-18T11:39:37.875Z,62.06
2022-12-18T11:42:25.553Z,52.76
2022-12-18T11:45:02.533Z,51.74
2022-12-18T11:47:43.322Z,54.21
2022-12-18T11:50:19.690Z,56.65
2022-12-18T11:52:51.499Z,57.96
2022-12-18T11:55:38.191Z,59.05
2022-12-18T11:58:34.097Z,59.93
2022-12-18T12:01:24.353Z,62.77
2022-12-18T12:04:17.039Z,67.11
2022-12-18T12:07:03.599Z,66.97
2022-12-18T12:10:04.970Z,70.68
2022-12-18T12:12:48.999Z,60.77
2022-12-18T12:15:26.648Z,53.25
2022-12-18T12:18:45.890Z,54.53
2022-12-18T12:21:55.851Z,56.18
2022-12-18T12:24:48.183Z,58.54
2022-12-18T12:27:29.539Z,60.44
2022-12-18T12:30:30.732Z,63.57
2022-12-18T12:33:16.962Z,64.98
2022-12-18T12:36:07.808Z,65.12
2022-12-18T12:38:49.815Z,64.64
2022-12-18T12:41:43.755Z,65.18
2022-12-18T12:44:27.764Z,66.22
2022-12-18T12:47:00.425Z,66.54
2022-12-18T12:49:37.644Z,66.64
2022-12-18T12:52:15.573Z,66.98
2022-12-18T12:54:45.783Z,66.99
2022-12-18T12:57:23.210Z,67.51
2022-12-18T12:59:58.271Z,68.56
2022-12-18T13:02:58.007Z,68.00
2022-12-18T13:05:57.502Z,70.88
2022-12-18T13:08:33.398Z,68.28
2022-12-18T13:11:22.786Z,68.25
2022-12-18T13:13:53.633Z,69.02
2022-12-18T13:16:25.401Z,70.55
2022-12-18T13:18:55.654Z,67.18
2022-12-18T13:21:30.321Z,65.86
2022-12-18T13:24:17.059Z,65.90
2022-12-18T13:26:44.848Z,65.86
2022-12-18T13:29:43.826Z,63.64
2022-12-18T13:32:25.046Z,62.86
2022-12-18T13:35:19.710Z,60.46
2022-12-18T13:37:56.004Z,60.83
2022-12-18T13:40:39.553Z,59.77
2022-12-18T13:43:22.867Z,60.66
2022-12-18T13:46:17.785Z,57.41
2022-12-18T13:49:07.715Z,55.51
2022-12-18T13:51:36.908Z,56.73
2022-12-18T13:54:33.716Z,58.31
2022-12-18T13:57:03.280Z,59.69
2022-12-18T13:59:37.553Z,61.30
2022-12-18T14:02:23.111Z,63.65
2022-12-18T14:04:52.988Z,68.42
2022-12-18T14:07:26.712Z,67.26
2022-12-18T14:10:18.793Z,65.74
2022-12-18T14:13:00.881Z,63.30
2022-12-18T14:15:35.041Z,61.54
2022-12-18T14:18:23.898Z,60.36
2022-12-18T14:20:57.949Z,57.84
2022-12-18T14:23:43.531Z,56.62
2022-12-18T14:26:26.540Z,57.91
2022-12-18T14:28:55.763Z,59.16
2022-12-18T14:31:29.663Z,60.19
2022-12-18T14:33:57.847Z,61.29
2022-12-18T14:36:28.529Z,63.56
2022-12-18T14:38:59.382Z,67.23
2022-12-18T14:41:28.870Z,67.08
2022-12-18T14:44:07.450Z,67.39
2022-12-18T14:46:41.058Z,65.23
2022-12-18T14:49:32.600Z,62.25
2022-12-18T14:52:20.962Z,60.49
2022-12-18T14:54:49.859Z,60.25
2022-12-18T14:57:36.709Z,60.73
2022-12-18T15:00:16.265Z,67.35
2022-12-18T15:02:46.598Z,58.88
2022-12-18T15:05:14.520Z,52.00
2022-12-18T15:07:44.773Z,53.06
2022-12-18T15:10:23.298Z,55.36
2022-12-18T15:12:57.797Z,57.45
2022-12-18T15:15:35.500Z,58.88
2022-12-18T15:18:13.723Z,60.74
2022-12-18T15:21:12.418Z,61.34
2022-12-18T15:23:54.462Z,71.71
2022-12-18T15:26:23.578Z,69.82
2022-12-18T15:28:54.014Z,62.25
2022-12-18T15:31:33.708Z,53.90
2022-12-18T15:34:12.495Z,51.92
2022-12-18T15:36:41.357Z,53.76
2022-12-18T15:39:13.275Z,56.68
2022-12-18T15:42:02.089Z,58.61
2022-12-18T15:44:30.714Z,60.92
2022-12-18T15:46:58.920Z,60.59
2022-12-18T15:49:27.084Z,61.16
2022-12-18T15:52:01.242Z,64.79
2022-12-18T15:54:48.369Z,69.19
2022-12-18T15:57:25.841Z,68.25
2022-12-18T15:59:59.613Z,68.54
2022-12-18T16:02:29.787Z,61.16
2022-12-18T16:04:58.413Z,55.84
2022-12-18T16:07:29.165Z,54.29
2022-12-18T16:10:00.300Z,55.58
2022-12-18T16:12:30.486Z,56.86
2022-12-18T16:14:58.696Z,59.28
2022-12-18T16:17:27.119Z,61.66
2022-12-18T16:19:55.353Z,65.28
2022-12-18T16:22:30.612Z,67.31
2022-12-18T16:24:59.097Z,68.53
2022-12-18T16:27:27.232Z,64.11
2022-12-18T16:29:55.381Z,63.13
2022-12-18T16:32:24.502Z,65.18
2022-12-18T16:34:52.788Z,60.69
2022-12-18T16:37:31.272Z,57.27
2022-12-18T16:39:59.755Z,53.82
2022-12-18T16:42:27.912Z,55.27
2022-12-18T16:44:58.004Z,57.74
2022-12-18T16:47:26.353Z,59.88
2022-12-18T16:49:54.484Z,62.83
2022-12-18T16:52:22.735Z,67.66
2022-12-18T16:54:50.942Z,67.50
2022-12-18T16:57:21.115Z,65.50
2022-12-18T16:59:53.344Z,66.12
2022-12-18T17:02:25.774Z,63.02
2022-12-18T17:05:00.385Z,55.20
2022-12-18T17:07:28.551Z,50.84
2022-12-18T17:09:57.092Z,52.71
2022-12-18T17:12:25.265Z,55.27
2022-12-18T17:14:53.285Z,57.04
2022-12-18T17:17:23.048Z,57.22
2022-12-18T17:19:52.856Z,58.48
2022-12-18T17:22:23.268Z,62.59
2022-12-18T17:24:51.594Z,67.75
2022-12-18T17:27:19.757Z,70.79
2022-12-18T17:29:48.963Z,64.97
2022-12-18T17:32:18.483Z,61.21
2022-12-18T17:34:47.137Z,55.97
2022-12-18T17:37:15.748Z,54.40
2022-12-18T17:39:43.789Z,56.34
2022-12-18T17:42:15.684Z,58.94
2022-12-18T17:44:45.483Z,61.21
2022-12-18T17:47:15.531Z,63.61
2022-12-18T17:49:43.499Z,68.74
2022-12-18T17:52:11.445Z,66.12
2022-12-18T17:54:42.349Z,64.52
2022-12-18T17:57:10.669Z,64.01
2022-12-18T17:59:38.862Z,63.93
2022-12-18T18:02:07.537Z,62.98
2022-12-18T18:04:36.447Z,63.12
2022-12-18T18:07:04.536Z,62.26
2022-12-18T18:09:32.889Z,60.91
2022-12-18T18:12:19.289Z,62.39
2022-12-18T18:14:47.997Z,62.66
2022-12-18T18:17:15.985Z,59.71
2022-12-18T18:19:47.431Z,58.21
2022-12-18T18:22:19.610Z,59.08
2022-12-18T18:24:48.193Z,60.37
2022-12-18T18:27:16.423Z,61.01
2022-12-18T18:29:45.089Z,63.08
2022-12-18T18:32:12.907Z,67.63
2022-12-18T18:34:40.945Z,70.03
2022-12-18T18:37:10.854Z,65.72
2022-12-18T18:39:38.853Z,65.27
2022-12-18T18:42:07.075Z,65.52
2022-12-18T18:44:35.573Z,65.44
2022-12-18T18:47:05.628Z,65.25
2022-12-18T18:49:38.057Z,66.40
2022-12-18T18:52:07.498Z,68.81
2022-12-18T18:54:35.572Z,63.70
2022-12-18T18:57:20.465Z,60.38
2022-12-18T18:59:51.656Z,53.15
2022-12-18T19:02:20.040Z,52.40
2022-12-18T19:04:48.110Z,53.41
2022-12-18T19:07:29.346Z,55.35
2022-12-18T19:10:04.594Z,60.04
2022-12-18T19:12:54.903Z,60.47
2022-12-18T19:15:23.598Z,63.23
2022-12-18T19:17:51.478Z,69.91
2022-12-18T19:20:19.653Z,68.29
2022-12-18T19:22:55.282Z,65.91
2022-12-18T19:25:37.163Z,63.59
2022-12-18T19:28:15.818Z,61.52
2022-12-18T19:30:58.657Z,61.07
2022-12-18T19:33:45.928Z,61.03
2022-12-18T19:36:17.727Z,61.26
2022-12-18T19:38:46.894Z,61.42
2022-12-18T19:41:16.295Z,60.73
2022-12-18T19:43:45.026Z,60.39
2022-12-18T19:46:16.327Z,61.02
2022-12-18T19:48:45.365Z,60.60
2022-12-18T19:51:19.678Z,61.10
2022-12-18T19:53:48.251Z,61.20
2022-12-18T19:56:19.950Z,60.54
2022-12-18T19:58:49.162Z,61.00
2022-12-18T20:01:20.243Z,60.69
2022-12-18T20:03:52.200Z,60.93
2022-12-18T20:06:25.081Z,61.61
2022-12-18T20:08:57.969Z,62.00
2022-12-18T20:11:33.897Z,62.26
2022-12-18T20:14:07.027Z,62.56
2022-12-18T20:16:35.787Z,63.29
2022-12-18T20:19:03.974Z,62.33
2022-12-18T20:21:32.101Z,61.93
2022-12-18T20:24:01.547Z,62.04
2022-12-18T20:26:29.706Z,61.34
2022-12-18T20:28:58.433Z,61.66
2022-12-18T20:31:26.870Z,60.68
2022-12-18T20:34:00.173Z,60.72
2022-12-18T20:36:30.391Z,61.74
2022-12-18T20:39:01.679Z,61.17
2022-12-18T20:41:38.099Z,61.17
2022-12-18T20:44:22.236Z,61.87
2022-12-18T20:46:54.708Z,62.17
2022-12-18T20:49:24.979Z,62.25
2022-12-18T20:51:56.449Z,62.43
2022-12-18T20:54:29.256Z,62.75
2022-12-18T20:56:57.353Z,64.45
2022-12-18T20:59:26.085Z,62.57
2022-12-18T21:01:54.982Z,61.09
2022-12-18T21:04:24.442Z,61.27
2022-12-18T21:07:00.524Z,61.06
2022-12-18T21:09:37.436Z,61.08
2022-12-18T21:12:40.267Z,61.67
2022-12-18T21:15:12.192Z,62.89
2022-12-18T21:17:44.049Z,62.44
2022-12-18T21:20:17.362Z,62.75
2022-12-18T21:22:47.112Z,63.25
2022-12-18T21:25:15.255Z,63.81
2022-12-18T21:27:43.106Z,64.72
2022-12-18T21:30:11.810Z,65.30
2022-12-18T21:32:40.113Z,64.77
2022-12-18T21:35:08.464Z,64.32
2022-12-18T21:37:36.480Z,64.30
2022-12-18T21:40:06.238Z,64.49
2022-12-18T21:42:52.973Z,64.70
2022-12-18T21:45:21.253Z,64.70
2022-12-18T21:47:49.209Z,65.24
2022-12-18T21:50:17.182Z,65.40
2022-12-18T21:52:45.463Z,66.39
2022-12-18T21:55:13.283Z,66.03
2022-12-18T21:57:41.217Z,66.10
2022-12-18T22:00:19.002Z,68.03
2022-12-18T22:03:07.385Z,66.55
2022-12-18T22:05:37.682Z,69.51
2022-12-18T22:08:07.055Z,68.36
2022-12-18T22:10:36.040Z,65.29
2022-12-18T22:13:05.809Z,63.65
2022-12-18T22:15:33.760Z,62.54
2022-12-18T22:18:02.158Z,62.76
2022-12-18T22:20:30.768Z,63.48
2022-12-18T22:23:04.258Z,64.02
2022-12-18T22:25:37.273Z,64.43
2022-12-18T22:28:26.504Z,64.91
2022-12-18T22:30:59.706Z,65.24
2022-12-18T22:33:28.526Z,65.75
2022-12-18T22:35:56.668Z,66.37
2022-12-18T22:38:26.364Z,66.37
2022-12-18T22:40:54.942Z,66.91
2022-12-18T22:43:22.753Z,66.99
2022-12-18T22:45:51.159Z,67.04
2022-12-18T22:48:19.372Z,67.16
2022-12-18T22:50:47.275Z,66.99
2022-12-18T22:53:17.679Z,67.23
2022-12-18T22:55:45.602Z,67.66
2022-12-18T22:58:13.558Z,67.43
2022-12-18T23:00:42.030Z,67.32
2022-12-18T23:03:10.366Z,67.84
2022-12-18T23:05:38.515Z,68.03
2022-12-18T23:08:06.511Z,67.44
2022-12-18T23:10:37.979Z,69.00
2022-12-18T23:13:05.895Z,67.35
2022-12-18T23:15:34.438Z,66.07
2022-12-18T23:18:02.323Z,66.10
2022-12-18T23:20:30.738Z,66.60
2022-12-18T23:22:58.973Z,68.32
2022-12-18T23:25:26.915Z,66.63
2022-12-18T23:27:54.919Z,66.05
2022-12-18T23:30:22.988Z,65.63
2022-12-18T23:32:51.179Z,66.38
2022-12-18T23:35:19.515Z,66.86
2022-12-18T23:38:04.471Z,66.80
2022-12-18T23:40:32.703Z,66.94
2022-12-18T23:43:00.995Z,67.13
2022-12-18T23:45:28.911Z,67.52
2022-12-18T23:47:57.270Z,67.14
2022-12-18T23:50:29.727Z,67.08
2022-12-18T23:53:05.186Z,67.21
2022-12-18T23:55:39.995Z,67.47
2022-12-18T23:58:16.084Z,67.58
